KPUW/PUW METAR and TAF weather

Enter ICAO airport designator
Station Type Date Time Source
KPUW METAR 2020/07/11 16:53 UTC NOAA

KPUW 111653Z AUTO 10011KT 9SM CLR 23/13 A3009 RMK AO2 SLP177 T02280128


Station Type Date Time Source
KPUW Decoded METAR 2020/07/11 16:53 UTC NOAA

PULLMAN/MOSCOW RGNL AIRPORT , WA, United States (KPUW) 46-45N 117-07W 773M
Jul 11, 2020 - 12:53 PM EDT / 2020.07.11 1653 UTC
Wind: from the E (100 degrees) at 13 MPH (11 KT):0
Visibility: 9 mile(s):0
Sky conditions: clear
Temperature: 73.0 F (22.8 C)
Dew Point: 55.0 F (12.8 C)
Relative Humidity: 53%
Pressure (altimeter): 30.09 in. Hg (1018 hPa)
ob: KPUW 111653Z AUTO 10011KT 9SM CLR 23/13 A3009 RMK AO2 SLP177 T02280128
cycle: 17

Station Type Date Time Source
KPUW TAF 2020/07/11 12:27 UTC NOAA

TAF KPUW 111125Z 1112/1212 10007KT P6SM SKC
FM112000 22007KT P6SM SKC
FM112300 25011G16KT P6SM FEW250
FM120500 25013G20KT P6SM SCT110

Example: see airport list